Terminal Aerodrome Forecast
Issued by NWS

Home | Current Version | Previous Version | Text Only | Print | Product List | Glossary On
Versions: 1 2 3 4 5 6 7 8 9 10 11 12 13 14 15 16 17 18 19 20
000
FTUS46 KSEW 170000 AAA
TAFOLM
TAF AMD
KOLM 170002Z 1700/1724 19009KT 5SM -RA BR BKN015 OVC030
     FM170600 19006KT 3SM -RA BR SCT009 OVC015
     FM171800 21010KT 5SM -RA BR BKN015 OVC030
     FM172100 23013G23KT P6SM -SHRA BKN025 OVC050=

USA.gov is the U.S. government's official web portal to all federal, state and local government web resources and services.